This is the latest recevied weather packets stored in our database for station/object SP8PUB-10. If no packets are shown the sender has not sent any weather packets the latest 1 day(s).
| Time | Temp. | Humidity | Pressure | Rain* | Wind** | Luminosity | Snow |
|---|---|---|---|---|---|---|---|
| 1778098395 | 17.78° C | 64% | 1009.1 hPa | - | - | - | - |
| 1778092094 | 20° C | 58% | 1008.8 hPa | - | - | - | - |
| 1778091194 | 20.56° C | 56% | 1008.7 hPa | - | - | - | - |
| 1778090294 | 20.56° C | 56% | 1008.6 hPa | - | - | - | - |
| 1778083993 | 24.44° C | 47% | 1008.5 hPa | - | - | - | - |
| 1778083093 | 24.44° C | 48% | 1008.5 hPa | - | - | - | - |
| 1778082193 | 25° C | 46% | 1008.6 hPa | - | - | - | - |
| 1778081293 | 25.56° C | 46% | 1008.6 hPa | - | - | - | - |
| 1778075892 | 26.11° C | 47% | 1008.7 hPa | - | - | - | - |
| 1778074992 | 26.11° C | 46% | 1008.7 hPa | - | - | - | - |
| 1778074092 | 25.56° C | 46% | 1008.8 hPa | - | - | - | - |
| 1778073192 | 25.56° C | 47% | 1008.7 hPa | - | - | - | - |
| 1778070491 | 26.11° C | 47% | 1009 hPa | - | - | - | - |
| 1778069591 | 26.11° C | 47% | 1009.1 hPa | - | - | - | - |
| 1778068691 | 26.67° C | 46% | 1009.2 hPa | - | - | - | - |
| 1778063293 | 27.22° C | 44% | 1009.2 hPa | - | - | - | - |
| 1778062393 | 26.67° C | 44% | 1009.1 hPa | - | - | - | - |
| 1778061493 | 25° C | 45% | 1009.1 hPa | - | - | - | - |
| 1778060593 | 25° C | 45% | 1009.2 hPa | - | - | - | - |
| 1778059693 | 26.11° C | 43% | 1009.1 hPa | - | - | - | - |
| 1778057892 | 25.56° C | 46% | 1009 hPa | - | - | - | - |
| 1778054292 | 24.44° C | 47% | 1008.7 hPa | - | - | - | - |
| 1778053392 | 23.89° C | 48% | 1008.7 hPa | - | - | - | - |
| 1778052492 | 23.33° C | 48% | 1008.7 hPa | - | - | - | - |
| 1778051592 | 22.78° C | 48% | 1008.8 hPa | - | - | - | - |
* Rain since midnight (hover to see other rain measurements)
** Current wind speed in m/s (hover to see current wind gust speed)